Flight Track Log - Related Links

Times and Time Zones

All times are in EDT time to prevent confusion due to time zone crossing. See the DAL1072 flight status page for this flight to view local times or setup timezone preferences in your user account.

Time Position Orientation Groundspeed Altitude Reporting Facility
EDT Latitude Longitude Course Direction KTS MPH feet Rate Location/Type
Tue 06:44:03 PM 27.4167 -82.5667 254° West 178 205 1,400  Level Tampa TRACON
Tue 06:45:03 PM 27.4000 -82.6333 289° West 253 291 3,000 2,279 Climbing Tampa TRACON
Tue 06:46:12 PM 27.4278 -82.7242 318° Northwest 219 252 6,300 3,023 Climbing Miami Center
Tue 06:47:12 PM 27.4878 -82.7856 355° North 249 287 9,500 2,450 Climbing Miami Center
Tue 06:48:12 PM 27.5731 -82.7947 338° Northwest 269 310 11,200 546 Climbing Miami Center
Tue 07:27:07 PM 31.7361 -84.7908 354° North 441 507 31,300 463 Climbing Atlanta Center
Tue 07:28:07 PM 31.8611 -84.8067 345° North 441 507 29,700 -1,600 Descending Atlanta Center
Tue 07:29:07 PM 31.9797 -84.8444 345° North 446 513 28,100 -1,600 Descending Atlanta Center
Tue 07:30:07 PM 32.1047 -84.8847 344° North 433 498 26,500 -1,500 Descending Atlanta Center
Tue 07:31:07 PM 32.2236 -84.9253 345° North 427 491 25,100 -1,250 Descending Atlanta Center
Tue 07:32:07 PM 32.3381 -84.9608 360° North 436 502 24,000 -550 Descending Atlanta Center
Tue 07:33:07 PM 32.4569 -84.9619 North 426 490 24,000 -200 Level Atlanta Center
Tue 07:34:07 PM 32.5761 -84.9483 North 426 490 23,600 -850 Descending Atlanta Center
Tue 07:35:07 PM 32.6911 -84.9347 North 421 484 22,300 -1,600 Descending Atlanta Center
Tue 07:36:07 PM 32.7997 -84.9261 North 402 463 20,400 -2,150 Descending Atlanta Center
Tue 07:37:07 PM 32.9061 -84.9147 North 382 440 18,000 -2,400 Descending Atlanta Center
Tue 07:38:07 PM 33.0128 -84.9008 19° North 382 440 15,600 -1,900 Descending Atlanta Center
Tue 07:39:07 PM 33.1089 -84.8622 20° North 365 420 14,200 -800 Descending Atlanta Center
Tue 07:40:07 PM 33.1947 -84.8258 20° North 365 420 14,000 -600 Descending Atlanta Center
Tue 07:41:07 PM 33.2889 -84.7844 20° North 360 414 13,000 -1,000 Descending Atlanta Center
Tue 07:42:07 PM 33.3811 -84.7453 40° Northeast 353 406 12,000 -500 Descending Atlanta Center
Tue 07:43:07 PM 33.4567 -84.6689 48° Northeast 348 400 12,000 -50 Level Atlanta Center
Tue 07:44:07 PM 33.5239 -84.5794 73° East 348 400 11,900 -250 Descending Atlanta Center
Tue 07:45:07 PM 33.5472 -84.4900 89° East 304 350 11,500 -1,088 Descending Atlanta Center
Tue 07:46:58 PM 33.5500 -84.3167 90° East 253 291 8,800 -1,579 Descending Atlanta TRACON
Tue 07:47:58 PM 33.5500 -84.2333 73° East 245 282 7,000 -1,700 Descending Atlanta TRACON
Tue 07:48:58 PM 33.5667 -84.1667 360° North 230 265 5,400 -1,250 Descending Atlanta TRACON
Tue 07:49:58 PM 33.6167 -84.1667 248° West 192 221 4,500 -800 Descending Atlanta TRACON
Tue 07:50:58 PM 33.6000 -84.2167 253° West 189 217 3,800 -900 Descending Atlanta TRACON
Tue 07:51:58 PM 33.5833 -84.2833 301° West 183 211 2,700 -650 Descending Atlanta TRACON
Tue 07:52:58 PM 33.6000 -84.3167 292° West 157 181 2,500 -500 Descending Atlanta TRACON
Tue 07:53:58 PM 33.6167 -84.3667 292° West 151 174 1,700 -800 Descending Atlanta TRACON
Tue 08:02:32 PM 33.6333 -84.4167 292° West  Level FlightAware Approximate

Login

Don't have an account? Register now (free) for customized features, flight alerts, and more!